Time;durP1;ratioP1;P1;durP2;ratioP2;P2;SDS_P1;SDS_P2;PMS_P1;PMS_P2;Temp;Humidity;BMP_temperature;BMP_pressure;BME280_temperature;BME280_humidity;BME280_pressure;Samples;Min_cycle;Max_cycle;Signal;HPM_P1;HPM_P2
2023/07/25 00:03:01;;;;;;;2.28;1.65;;;;;;;;;;10367888;28;20035;-59
2023/07/25 00:08:03;;;;;;;3.10;1.65;;;;;;;;;;10369879;28;20116;-59
2023/07/25 00:13:03;;;;;;;2.83;1.65;;;;;;;;;;10368462;28;20029;-58
2023/07/25 00:18:04;;;;;;;2.72;1.90;;;;;;;;;;10359262;28;20385;-59
2023/07/25 00:23:04;;;;;;;4.07;1.55;;;;;;;;;;10368902;28;20108;-58
2023/07/25 00:28:05;;;;;;;2.33;1.60;;;;;;;;;;10360577;28;20096;-58
2023/07/25 00:33:06;;;;;;;2.65;1.42;;;;;;;;;;10358928;28;20030;-58
2023/07/25 00:38:07;;;;;;;3.22;1.60;;;;;;;;;;10359701;28;20049;-58
2023/07/25 00:43:07;;;;;;;1.83;1.60;;;;;;;;;;10359027;28;20022;-58
2023/07/25 00:48:08;;;;;;;2.17;1.50;;;;;;;;;;10360266;28;20049;-59
2023/07/25 00:53:09;;;;;;;2.45;1.60;;;;;;;;;;10351051;28;20029;-58
2023/07/25 00:58:10;;;;;;;2.55;1.55;;;;;;;;;;10352184;28;20114;-58
2023/07/25 01:03:11;;;;;;;1.40;1.17;;;;;;;;;;10366311;28;20539;-58
2023/07/25 01:08:12;;;;;;;2.13;1.48;;;;;;;;;;10350320;28;20083;-58
2023/07/25 01:13:13;;;;;;;1.58;1.42;;;;;;;;;;10354839;28;20084;-59
2023/07/25 01:18:14;;;;;;;3.63;1.92;;;;;;;;;;10354248;28;20030;-59
2023/07/25 01:23:15;;;;;;;2.10;1.30;;;;;;;;;;10353018;28;20406;-59
2023/07/25 01:28:16;;;;;;;2.28;1.77;;;;;;;;;;10331515;28;20034;-58
2023/07/25 01:33:17;;;;;;;2.78;1.80;;;;;;;;;;10344250;28;20482;-58
2023/07/25 01:38:18;;;;;;;2.25;1.40;;;;;;;;;;10352141;28;20038;-58
2023/07/25 01:43:18;;;;;;;5.00;1.60;;;;;;;;;;10355268;28;20041;-58
2023/07/25 01:48:19;;;;;;;2.13;1.30;;;;;;;;;;10365108;28;20030;-58
2023/07/25 01:53:19;;;;;;;3.10;1.27;;;;;;;;;;10341232;28;20027;-57
2023/07/25 01:58:20;;;;;;;1.73;1.50;;;;;;;;;;10347325;28;20072;-57
2023/07/25 02:03:21;;;;;;;1.85;1.38;;;;;;;;;;10339699;28;20025;-58
2023/07/25 02:08:21;;;;;;;1.52;1.42;;;;;;;;;;10356870;28;20026;-58
2023/07/25 02:13:22;;;;;;;2.15;1.40;;;;;;;;;;10366343;28;20032;-58
2023/07/25 02:18:22;;;;;;;1.38;1.27;;;;;;;;;;10356892;28;20034;-58
2023/07/25 02:23:23;;;;;;;3.55;1.30;;;;;;;;;;10359916;28;20026;-59
2023/07/25 02:28:23;;;;;;;2.25;1.42;;;;;;;;;;10357639;28;20582;-58
2023/07/25 02:33:24;;;;;;;2.20;1.40;;;;;;;;;;10363527;28;20038;-59
2023/07/25 02:38:25;;;;;;;1.52;1.30;;;;;;;;;;10356020;28;20363;-58
2023/07/25 02:43:25;;;;;;;3.45;1.85;;;;;;;;;;10371638;28;20113;-58
2023/07/25 02:48:26;;;;;;;1.38;1.27;;;;;;;;;;10360071;28;20029;-58
2023/07/25 02:53:26;;;;;;;2.15;1.65;;;;;;;;;;10372916;28;20041;-58
2023/07/25 02:58:27;;;;;;;2.03;1.48;;;;;;;;;;10349792;28;20030;-58
2023/07/25 03:03:28;;;;;;;5.10;1.35;;;;;;;;;;10372521;28;20092;-58
2023/07/25 03:08:28;;;;;;;3.30;1.67;;;;;;;;;;10353992;28;20018;-58
2023/07/25 03:13:29;;;;;;;2.15;1.55;;;;;;;;;;10368062;28;20355;-58
2023/07/25 03:18:30;;;;;;;1.30;1.20;;;;;;;;;;10356984;28;20037;-58
2023/07/25 03:23:31;;;;;;;2.70;1.70;;;;;;;;;;10355605;28;20053;-58
2023/07/25 03:28:31;;;;;;;6.60;1.50;;;;;;;;;;10371624;28;20022;-58
2023/07/25 03:33:32;;;;;;;1.50;1.40;;;;;;;;;;10341006;28;20025;-59
2023/07/25 03:38:33;;;;;;;1.83;1.45;;;;;;;;;;10354165;28;20417;-59
2023/07/25 03:43:34;;;;;;;1.88;1.42;;;;;;;;;;10355921;28;20378;-58
2023/07/25 03:48:34;;;;;;;1.67;1.55;;;;;;;;;;10357299;28;20026;-58
2023/07/25 03:53:35;;;;;;;1.77;1.50;;;;;;;;;;10357606;28;20374;-59
2023/07/25 03:58:35;;;;;;;1.23;1.13;;;;;;;;;;10363591;28;20041;-58
2023/07/25 04:03:36;;;;;;;2.63;1.50;;;;;;;;;;10355504;28;20038;-59
2023/07/25 04:08:37;;;;;;;2.13;1.65;;;;;;;;;;10354393;28;20026;-59
2023/07/25 04:13:37;;;;;;;2.28;1.42;;;;;;;;;;10367863;28;20030;-59
2023/07/25 04:18:38;;;;;;;1.00;1.00;;;;;;;;;;10360993;28;20368;-59
2023/07/25 04:23:38;;;;;;;2.17;1.40;;;;;;;;;;10361427;28;20370;-58
2023/07/25 04:28:39;;;;;;;3.08;1.70;;;;;;;;;;10366917;28;20488;-59
2023/07/25 04:33:39;;;;;;;1.55;1.33;;;;;;;;;;10370603;28;20025;-58
2023/07/25 04:38:40;;;;;;;2.05;1.42;;;;;;;;;;10370253;28;20057;-58
2023/07/25 04:43:41;;;;;;;2.42;1.40;;;;;;;;;;10360568;28;20041;-58
2023/07/25 04:48:41;;;;;;;2.08;1.58;;;;;;;;;;10343794;28;20096;-58
2023/07/25 04:53:42;;;;;;;3.63;1.80;;;;;;;;;;10355593;28;20435;-58
2023/07/25 04:58:42;;;;;;;2.42;1.55;;;;;;;;;;10354592;28;20402;-58
2023/07/25 05:03:43;;;;;;;4.55;1.70;;;;;;;;;;10367957;28;20485;-56
2023/07/25 05:08:43;;;;;;;2.55;1.48;;;;;;;;;;10368958;28;20393;-56
2023/07/25 05:13:44;;;;;;;1.50;1.40;;;;;;;;;;10365323;28;20389;-57
2023/07/25 05:18:45;;;;;;;4.10;1.40;;;;;;;;;;10363772;28;20153;-58
2023/07/25 05:23:46;;;;;;;3.45;1.60;;;;;;;;;;10360269;28;20444;-58
2023/07/25 05:28:46;;;;;;;2.65;1.30;;;;;;;;;;10361070;28;20038;-57
2023/07/25 05:33:47;;;;;;;2.42;1.30;;;;;;;;;;10361316;28;20034;-57
2023/07/25 05:38:47;;;;;;;25.45;2.55;;;;;;;;;;10359388;28;20608;-57
2023/07/25 05:43:48;;;;;;;5.75;1.55;;;;;;;;;;10348415;28;20399;-57
2023/07/25 05:48:49;;;;;;;3.25;1.50;;;;;;;;;;10339029;28;20557;-56
2023/07/25 05:53:51;;;;;;;6.65;2.00;;;;;;;;;;10354003;28;20069;-57
2023/07/25 05:58:51;;;;;;;3.13;1.85;;;;;;;;;;10356127;28;20033;-57
2023/07/25 06:03:52;;;;;;;7.18;2.30;;;;;;;;;;10355868;28;20034;-57
2023/07/25 06:08:53;;;;;;;13.88;3.03;;;;;;;;;;10359891;28;20628;-58
2023/07/25 06:13:54;;;;;;;29.17;3.00;;;;;;;;;;10343860;28;20040;-58
2023/07/25 06:18:54;;;;;;;13.70;3.03;;;;;;;;;;10330486;28;20041;-58
2023/07/25 06:23:55;;;;;;;12.15;3.38;;;;;;;;;;10351025;28;20073;-58
2023/07/25 06:28:55;;;;;;;9.63;3.00;;;;;;;;;;10366517;28;20490;-58
2023/07/25 06:33:56;;;;;;;11.55;3.70;;;;;;;;;;10367103;28;20030;-58
2023/07/25 06:38:57;;;;;;;8.40;3.28;;;;;;;;;;10366777;28;20393;-58
2023/07/25 06:43:57;;;;;;;9.88;3.17;;;;;;;;;;10362653;28;20034;-58
2023/07/25 06:48:58;;;;;;;9.68;3.17;;;;;;;;;;10367011;28;20045;-58
2023/07/25 06:53:58;;;;;;;9.32;3.90;;;;;;;;;;10366844;28;20030;-58
2023/07/25 06:58:59;;;;;;;7.55;3.40;;;;;;;;;;10366516;28;20041;-58
2023/07/25 07:03:59;;;;;;;5.50;2.97;;;;;;;;;;10366648;28;20079;-58
2023/07/25 07:09:00;;;;;;;10.88;3.15;;;;;;;;;;10365875;28;20363;-58
2023/07/25 07:14:01;;;;;;;11.13;3.30;;;;;;;;;;10366266;28;20021;-58
2023/07/25 07:19:01;;;;;;;9.48;3.03;;;;;;;;;;10366645;28;20030;-58
2023/07/25 07:24:02;;;;;;;7.32;2.85;;;;;;;;;;10355345;28;20026;-58
2023/07/25 07:29:02;;;;;;;7.95;2.92;;;;;;;;;;10372916;28;20029;-58
2023/07/25 07:34:14;;;;;;;8.45;2.72;;;;;;;;;;10355843;28;20029;-58
2023/07/25 07:39:15;;;;;;;7.25;2.65;;;;;;;;;;10373047;28;20045;-58
2023/07/25 07:44:15;;;;;;;9.00;3.30;;;;;;;;;;10372818;28;20038;-58
2023/07/25 07:49:16;;;;;;;6.45;2.75;;;;;;;;;;10372325;28;20501;-58
2023/07/25 07:54:17;;;;;;;10.50;2.92;;;;;;;;;;10359490;28;20023;-58
2023/07/25 07:59:17;;;;;;;4.70;2.90;;;;;;;;;;10372004;28;20033;-58
2023/07/25 08:04:18;;;;;;;5.38;2.90;;;;;;;;;;10371748;28;20033;-58
2023/07/25 08:09:18;;;;;;;5.00;2.72;;;;;;;;;;10371729;28;20026;-58
2023/07/25 08:14:19;;;;;;;6.43;2.47;;;;;;;;;;10371437;28;20033;-58
2023/07/25 08:19:19;;;;;;;7.28;2.70;;;;;;;;;;10358010;28;20022;-58
2023/07/25 08:24:20;;;;;;;7.00;3.13;;;;;;;;;;10371227;28;20033;-58
2023/07/25 08:29:20;;;;;;;6.82;2.95;;;;;;;;;;10370949;28;20105;-58
2023/07/25 08:34:21;;;;;;;8.38;2.83;;;;;;;;;;10369916;28;20034;-58
2023/07/25 08:39:22;;;;;;;5.88;3.05;;;;;;;;;;10370467;28;20073;-58
2023/07/25 08:44:24;;;;;;;8.05;2.55;;;;;;;;;;10370554;28;20250;-58
2023/07/25 08:49:29;;;;;;;9.00;3.10;;;;;;;;;;10370380;28;20034;-58
2023/07/25 08:54:36;;;;;;;4.65;2.83;;;;;;;;;;10353336;28;20029;-58
2023/07/25 08:59:38;;;;;;;5.47;2.33;;;;;;;;;;10369963;28;20030;-58
2023/07/25 09:04:40;;;;;;;4.75;2.50;;;;;;;;;;10368686;28;20029;-58
2023/07/25 09:09:41;;;;;;;4.57;2.67;;;;;;;;;;10367646;28;20457;-58
2023/07/25 09:14:43;;;;;;;4.95;2.78;;;;;;;;;;10355892;28;20045;-58
2023/07/25 09:19:43;;;;;;;5.63;2.90;;;;;;;;;;10351958;28;20398;-58
2023/07/25 09:24:44;;;;;;;6.88;3.17;;;;;;;;;;10369330;28;20025;-58
2023/07/25 09:29:49;;;;;;;10.15;2.72;;;;;;;;;;10368591;28;20509;-58
2023/07/25 09:35:01;;;;;;;4.60;2.53;;;;;;;;;;10368211;28;20417;-58
2023/07/25 09:40:06;;;;;;;4.63;2.88;;;;;;;;;;10368060;28;20026;-58
2023/07/25 09:45:09;;;;;;;5.82;2.53;;;;;;;;;;10351142;28;20049;-58
2023/07/25 09:50:10;;;;;;;5.95;2.75;;;;;;;;;;10368709;28;20136;-58
2023/07/25 09:55:11;;;;;;;5.10;2.63;;;;;;;;;;10367981;28;20133;-58
2023/07/25 10:00:12;;;;;;;5.38;2.58;;;;;;;;;;10368147;28;20092;-58
2023/07/25 10:05:14;;;;;;;5.25;2.42;;;;;;;;;;10368338;28;20045;-58
2023/07/25 10:10:17;;;;;;;4.45;2.55;;;;;;;;;;10365626;28;20474;-58
2023/07/25 10:15:18;;;;;;;5.82;2.38;;;;;;;;;;10354924;28;20077;-58
2023/07/25 10:20:22;;;;;;;7.55;2.67;;;;;;;;;;10334107;28;20113;-58
2023/07/25 10:25:29;;;;;;;7.88;3.10;;;;;;;;;;10340063;28;20258;-58
2023/07/25 10:30:39;;;;;;;7.35;2.67;;;;;;;;;;10360196;28;20037;-58
2023/07/25 10:35:49;;;;;;;4.30;2.67;;;;;;;;;;10367085;28;20530;-58
2023/07/25 10:41:16;;;;;;;3.55;2.80;;;;;;;;;;10366648;28;20400;-58
2023/07/25 10:46:22;;;;;;;4.55;2.47;;;;;;;;;;10354541;28;20045;-58
2023/07/25 10:51:23;;;;;;;6.40;2.90;;;;;;;;;;10367123;28;20482;-58
2023/07/25 10:56:23;;;;;;;3.03;2.15;;;;;;;;;;10367152;28;20018;-58
2023/07/25 11:01:37;;;;;;;5.07;2.42;;;;;;;;;;10373360;28;20018;-58
2023/07/25 11:06:39;;;;;;;4.28;2.67;;;;;;;;;;10373504;28;20449;-58
2023/07/25 11:11:45;;;;;;;4.43;2.80;;;;;;;;;;10361580;28;20113;-58
2023/07/25 11:16:51;;;;;;;4.95;2.33;;;;;;;;;;10373465;28;20033;-58
2023/07/25 11:21:52;;;;;;;5.57;2.58;;;;;;;;;;10360786;28;20390;-58
2023/07/25 11:26:52;;;;;;;3.60;2.42;;;;;;;;;;10373145;28;20037;-58
2023/07/25 11:31:53;;;;;;;3.80;2.40;;;;;;;;;;10373600;28;20061;-58
2023/07/25 11:36:54;;;;;;;3.78;2.35;;;;;;;;;;10373101;28;20049;-58
2023/07/25 11:41:54;;;;;;;4.63;2.50;;;;;;;;;;10372607;28;20099;-58
2023/07/25 11:46:56;;;;;;;3.15;2.05;;;;;;;;;;10372466;28;20107;-57
2023/07/25 11:51:56;;;;;;;5.50;2.50;;;;;;;;;;10354708;28;20144;-58
2023/07/25 11:56:57;;;;;;;6.00;3.10;;;;;;;;;;10356524;28;20106;-58
2023/07/25 12:02:05;;;;;;;6.93;2.55;;;;;;;;;;10352728;28;20022;-58
2023/07/25 12:07:06;;;;;;;2.40;2.20;;;;;;;;;;10370321;28;20026;-58
2023/07/25 12:12:12;;;;;;;6.82;2.80;;;;;;;;;;10344652;28;20409;-58
2023/07/25 12:17:13;;;;;;;5.95;2.55;;;;;;;;;;10361201;28;20080;-57
2023/07/25 12:22:15;;;;;;;8.07;2.83;;;;;;;;;;10371548;28;20068;-58
2023/07/25 12:27:19;;;;;;;3.70;2.33;;;;;;;;;;10371053;28;20113;-58
2023/07/25 12:32:19;;;;;;;4.07;2.60;;;;;;;;;;10357546;28;20018;-58
2023/07/25 12:37:20;;;;;;;5.53;2.75;;;;;;;;;;10370276;28;20422;-58
2023/07/25 12:42:20;;;;;;;4.32;2.47;;;;;;;;;;10360695;28;20042;-58
2023/07/25 12:47:21;;;;;;;4.45;2.55;;;;;;;;;;10362996;28;20178;-58
2023/07/25 12:52:22;;;;;;;5.60;2.63;;;;;;;;;;10370023;28;20095;-57
2023/07/25 12:57:22;;;;;;;8.35;3.50;;;;;;;;;;10369504;28;20543;-57
2023/07/25 13:02:23;;;;;;;5.75;3.17;;;;;;;;;;10368301;28;20033;-57
2023/07/25 13:07:23;;;;;;;4.90;3.20;;;;;;;;;;10362891;28;20034;-57
2023/07/25 13:12:24;;;;;;;7.13;3.63;;;;;;;;;;10369469;28;20477;-57
2023/07/25 13:17:24;;;;;;;8.30;3.33;;;;;;;;;;10365991;28;20458;-57
2023/07/25 13:22:25;;;;;;;6.05;3.35;;;;;;;;;;10333306;28;20276;-57
2023/07/25 13:27:27;;;;;;;10.18;3.97;;;;;;;;;;10348115;28;20096;-57
2023/07/25 13:32:27;;;;;;;9.60;3.60;;;;;;;;;;10368360;28;20053;-57
2023/07/25 13:37:28;;;;;;;7.78;3.72;;;;;;;;;;10348379;28;20096;-57
2023/07/25 13:42:29;;;;;;;7.93;3.85;;;;;;;;;;10350837;28;20437;-57
2023/07/25 13:47:29;;;;;;;7.88;3.58;;;;;;;;;;10347262;28;20034;-57
2023/07/25 13:52:30;;;;;;;8.57;3.50;;;;;;;;;;10347357;28;20036;-57
2023/07/25 13:57:30;;;;;;;12.23;4.45;;;;;;;;;;10356154;28;20394;-57
2023/07/25 14:02:31;;;;;;;5.38;3.60;;;;;;;;;;10367735;28;20484;-57
2023/07/25 14:07:32;;;;;;;7.97;3.85;;;;;;;;;;10355888;28;20040;-58
2023/07/25 14:12:32;;;;;;;6.15;3.58;;;;;;;;;;10358620;28;20377;-58
2023/07/25 14:17:33;;;;;;;7.53;3.70;;;;;;;;;;10354237;28;20109;-57
2023/07/25 14:22:33;;;;;;;5.82;3.90;;;;;;;;;;10360415;28;20034;-57
2023/07/25 14:27:34;;;;;;;12.55;4.60;;;;;;;;;;10362249;28;20269;-57
2023/07/25 14:32:35;;;;;;;9.38;4.00;;;;;;;;;;10367552;28;20022;-57
2023/07/25 14:37:35;;;;;;;8.88;4.22;;;;;;;;;;10374861;28;20052;-57
2023/07/25 14:42:36;;;;;;;9.32;4.35;;;;;;;;;;10375225;28;20034;-57
2023/07/25 14:47:36;;;;;;;10.38;4.57;;;;;;;;;;10374974;28;20038;-57
2023/07/25 14:52:37;;;;;;;7.97;4.22;;;;;;;;;;10375267;28;20030;-57
2023/07/25 14:57:38;;;;;;;6.82;4.20;;;;;;;;;;10368584;28;20034;-57
2023/07/25 15:02:39;;;;;;;7.65;4.00;;;;;;;;;;10374231;28;20037;-58
2023/07/25 15:07:39;;;;;;;12.52;4.40;;;;;;;;;;10373609;28;20033;-57
2023/07/25 15:12:40;;;;;;;7.53;4.25;;;;;;;;;;10348053;28;20061;-57
2023/07/25 15:17:41;;;;;;;8.18;4.22;;;;;;;;;;10373675;28;20034;-57
2023/07/25 15:22:42;;;;;;;9.18;4.10;;;;;;;;;;10373189;28;20033;-57
2023/07/25 15:27:43;;;;;;;11.38;4.40;;;;;;;;;;10373583;28;20025;-57
2023/07/25 15:32:44;;;;;;;7.45;3.70;;;;;;;;;;10373019;28;20104;-57
2023/07/25 15:37:47;;;;;;;6.45;4.07;;;;;;;;;;10373099;28;20177;-57
2023/07/25 15:42:48;;;;;;;6.28;3.80;;;;;;;;;;10339044;28;20263;-57
2023/07/25 15:47:48;;;;;;;8.98;4.13;;;;;;;;;;10372425;28;20262;-58
2023/07/25 15:52:49;;;;;;;6.50;3.55;;;;;;;;;;10362758;28;20033;-57
2023/07/25 15:57:49;;;;;;;5.93;3.80;;;;;;;;;;10372417;28;20083;-57
2023/07/25 16:02:50;;;;;;;10.93;4.10;;;;;;;;;;10371976;28;20480;-57
2023/07/25 16:07:51;;;;;;;8.95;3.92;;;;;;;;;;10364518;28;20544;-57
2023/07/25 16:12:51;;;;;;;9.13;3.90;;;;;;;;;;10365463;28;20030;-57
2023/07/25 16:17:52;;;;;;;9.73;4.25;;;;;;;;;;10371095;28;20092;-57
2023/07/25 16:22:52;;;;;;;6.30;4.00;;;;;;;;;;10371810;28;20034;-57
2023/07/25 16:27:53;;;;;;;7.55;3.85;;;;;;;;;;10357685;28;20034;-57
2023/07/25 16:32:54;;;;;;;6.43;3.63;;;;;;;;;;10361521;28;20482;-57
2023/07/25 16:37:54;;;;;;;5.20;3.72;;;;;;;;;;10366357;28;20278;-57
2023/07/25 16:42:55;;;;;;;10.82;3.85;;;;;;;;;;10366114;28;20026;-57
2023/07/25 16:47:55;;;;;;;9.98;3.97;;;;;;;;;;10359678;28;20026;-58
2023/07/25 16:52:56;;;;;;;5.20;3.65;;;;;;;;;;10368767;28;20504;-58
2023/07/25 16:57:57;;;;;;;6.82;3.45;;;;;;;;;;10371239;28;20382;-58
2023/07/25 17:02:57;;;;;;;6.78;3.60;;;;;;;;;;10369564;28;20466;-58
2023/07/25 17:07:58;;;;;;;7.55;3.60;;;;;;;;;;10367870;28;20030;-57
2023/07/25 17:12:58;;;;;;;10.07;3.85;;;;;;;;;;10359966;28;20474;-57
2023/07/25 17:17:59;;;;;;;6.40;3.63;;;;;;;;;;10351787;28;20080;-57
2023/07/25 17:23:00;;;;;;;7.22;3.75;;;;;;;;;;10368072;28;20030;-58
2023/07/25 17:28:00;;;;;;;5.57;3.60;;;;;;;;;;10368600;28;20485;-57
2023/07/25 17:33:01;;;;;;;7.72;2.90;;;;;;;;;;10354609;28;20517;-59
2023/07/25 17:38:01;;;;;;;9.63;3.45;;;;;;;;;;10357594;28;20398;-58
2023/07/25 17:43:02;;;;;;;6.13;3.75;;;;;;;;;;10353600;28;20101;-58
2023/07/25 17:48:03;;;;;;;6.97;3.60;;;;;;;;;;10366582;28;20493;-58
2023/07/25 17:53:03;;;;;;;6.45;3.42;;;;;;;;;;10353620;28;20084;-58
2023/07/25 17:58:04;;;;;;;7.03;3.67;;;;;;;;;;10360407;28;20478;-58
2023/07/25 18:03:06;;;;;;;5.03;3.30;;;;;;;;;;10362887;28;20077;-58
2023/07/25 18:08:07;;;;;;;6.80;3.83;;;;;;;;;;10355751;28;20517;-58
2023/07/25 18:13:07;;;;;;;5.38;3.28;;;;;;;;;;10362876;28;20026;-58
2023/07/25 18:18:08;;;;;;;7.82;3.50;;;;;;;;;;10364844;28;20029;-59
2023/07/25 18:23:09;;;;;;;6.20;3.65;;;;;;;;;;10349230;28;20111;-58
2023/07/25 18:28:09;;;;;;;11.55;3.55;;;;;;;;;;10362182;28;20054;-58
2023/07/25 18:33:10;;;;;;;12.38;3.42;;;;;;;;;;10346438;28;20037;-58
2023/07/25 18:38:11;;;;;;;9.35;3.38;;;;;;;;;;10342697;28;20194;-55
2023/07/25 18:43:17;;;;;;;6.38;3.50;;;;;;;;;;10356506;28;20025;-58
2023/07/25 18:48:17;;;;;;;8.85;4.13;;;;;;;;;;10362302;28;20534;-58
2023/07/25 18:53:18;;;;;;;14.43;3.88;;;;;;;;;;10349686;28;20105;-58
2023/07/25 18:58:18;;;;;;;11.55;4.43;;;;;;;;;;10365991;28;20063;-58
2023/07/25 19:03:19;;;;;;;9.52;3.78;;;;;;;;;;10361980;28;20034;-58
2023/07/25 19:08:20;;;;;;;6.10;3.35;;;;;;;;;;10354004;28;20494;-59
2023/07/25 19:13:21;;;;;;;8.75;3.72;;;;;;;;;;10356150;28;20120;-58
2023/07/25 19:18:22;;;;;;;9.98;3.65;;;;;;;;;;10365133;28;20104;-59
2023/07/25 19:23:22;;;;;;;8.98;4.03;;;;;;;;;;10372942;28;20076;-58
2023/07/25 19:28:23;;;;;;;13.52;4.90;;;;;;;;;;10356906;28;20417;-58
2023/07/25 19:33:27;;;;;;;11.32;4.65;;;;;;;;;;10362625;28;20038;-58
2023/07/25 19:38:28;;;;;;;11.65;4.57;;;;;;;;;;10359998;28;21006;-58
2023/07/25 19:43:29;;;;;;;8.52;4.47;;;;;;;;;;10364615;28;20021;-58
2023/07/25 19:48:30;;;;;;;10.05;4.38;;;;;;;;;;10366019;28;20502;-58
2023/07/25 19:53:30;;;;;;;8.48;4.60;;;;;;;;;;10359601;28;20030;-58
2023/07/25 19:58:31;;;;;;;9.30;3.83;;;;;;;;;;10361424;28;20034;-58
2023/07/25 20:03:33;;;;;;;12.43;4.00;;;;;;;;;;10360099;28;20049;-58
2023/07/25 20:08:34;;;;;;;9.45;3.88;;;;;;;;;;10361273;28;20030;-57
2023/07/25 20:13:35;;;;;;;7.93;3.95;;;;;;;;;;10353274;28;20049;-58
2023/07/25 20:18:35;;;;;;;7.10;3.45;;;;;;;;;;10354345;28;20064;-57
2023/07/25 20:23:36;;;;;;;8.30;3.65;;;;;;;;;;10357925;28;20030;-57
2023/07/25 20:28:37;;;;;;;6.35;3.72;;;;;;;;;;10370671;28;20071;-57
2023/07/25 20:33:42;;;;;;;8.50;4.28;;;;;;;;;;10365171;28;20030;-57
2023/07/25 20:38:46;;;;;;;14.20;4.20;;;;;;;;;;10303106;28;20050;-57
2023/07/25 20:43:47;;;;;;;7.93;4.10;;;;;;;;;;10297375;28;20026;-57
2023/07/25 20:48:47;;;;;;;7.55;3.58;;;;;;;;;;10310135;28;20494;-58
2023/07/25 20:53:48;;;;;;;7.05;3.70;;;;;;;;;;10302844;28;20038;-57
2023/07/25 20:58:49;;;;;;;12.23;4.57;;;;;;;;;;10321871;28;20033;-58
2023/07/25 21:03:49;;;;;;;7.88;4.65;;;;;;;;;;10297868;28;20557;-57
2023/07/25 21:08:50;;;;;;;10.30;5.05;;;;;;;;;;10295984;28;20371;-57
2023/07/25 21:13:50;;;;;;;12.60;4.35;;;;;;;;;;10319997;28;20034;-57
2023/07/25 21:18:51;;;;;;;11.07;5.22;;;;;;;;;;10303915;28;20281;-57
2023/07/25 21:23:52;;;;;;;13.45;4.75;;;;;;;;;;10284502;28;20503;-57
2023/07/25 21:28:53;;;;;;;6.57;3.78;;;;;;;;;;10301293;28;20983;-57
2023/07/25 21:33:56;;;;;;;7.45;3.95;;;;;;;;;;10316984;28;20028;-58
2023/07/25 21:38:57;;;;;;;7.82;3.88;;;;;;;;;;10336625;28;20054;-58
2023/07/25 21:43:59;;;;;;;5.65;3.90;;;;;;;;;;10312946;28;20121;-58
2023/07/25 21:49:01;;;;;;;6.18;3.20;;;;;;;;;;10323587;28;20121;-58
2023/07/25 21:54:02;;;;;;;6.82;3.25;;;;;;;;;;10302586;28;20451;-58
2023/07/25 21:59:03;;;;;;;4.95;2.97;;;;;;;;;;10320161;28;20084;-58
2023/07/25 22:04:07;;;;;;;5.20;3.45;;;;;;;;;;10314585;28;20034;-58
2023/07/25 22:09:09;;;;;;;4.63;3.30;;;;;;;;;;10284346;28;20030;-57
2023/07/25 22:14:10;;;;;;;5.72;2.95;;;;;;;;;;10297238;28;20451;-59
2023/07/25 22:19:11;;;;;;;5.20;3.05;;;;;;;;;;10306519;28;20552;-59
2023/07/25 22:24:12;;;;;;;6.70;3.50;;;;;;;;;;10312862;28;20179;-59
2023/07/25 22:29:13;;;;;;;4.68;3.03;;;;;;;;;;10314352;28;20117;-59
2023/07/25 22:34:15;;;;;;;3.17;2.78;;;;;;;;;;10325499;28;20022;-59
2023/07/25 22:39:16;;;;;;;3.28;2.47;;;;;;;;;;10325223;28;20047;-59
2023/07/25 22:44:18;;;;;;;6.30;2.90;;;;;;;;;;10314171;28;20030;-59
2023/07/25 22:49:19;;;;;;;6.47;2.75;;;;;;;;;;10300945;28;20179;-59
2023/07/25 22:54:21;;;;;;;3.78;2.60;;;;;;;;;;10314470;28;20089;-59
2023/07/25 22:59:23;;;;;;;7.15;2.28;;;;;;;;;;10299909;28;20042;-59
2023/07/25 23:04:24;;;;;;;4.70;2.40;;;;;;;;;;10297792;28;20320;-59
2023/07/25 23:09:25;;;;;;;3.85;2.63;;;;;;;;;;10316184;28;20089;-58
2023/07/25 23:14:25;;;;;;;3.20;2.50;;;;;;;;;;10324255;28;20364;-58
2023/07/25 23:19:26;;;;;;;3.20;2.50;;;;;;;;;;10318934;28;20038;-59
2023/07/25 23:24:26;;;;;;;3.97;2.58;;;;;;;;;;10310436;28;20064;-59
2023/07/25 23:29:27;;;;;;;5.82;2.60;;;;;;;;;;10315429;28;20035;-59
2023/07/25 23:34:41;;;;;;;3.60;2.45;;;;;;;;;;10328757;28;20088;-58
2023/07/25 23:39:42;;;;;;;3.70;2.53;;;;;;;;;;10317144;28;20095;-58
2023/07/25 23:44:43;;;;;;;3.50;2.47;;;;;;;;;;10321689;28;20026;-58
2023/07/25 23:49:43;;;;;;;3.35;2.33;;;;;;;;;;10315430;28;20379;-58
2023/07/25 23:54:44;;;;;;;3.20;2.13;;;;;;;;;;10307216;28;20352;-58
2023/07/25 23:59:45;;;;;;;3.33;2.35;;;;;;;;;;10320261;28;20542;-58
